createdAt,value
2022-10-11T00:00:14.556Z,99.90
2022-10-11T00:02:41.745Z,99.90
2022-10-11T00:05:09.605Z,99.90
2022-10-11T00:07:38.272Z,99.90
2022-10-11T00:10:07.722Z,99.90
2022-10-11T00:12:35.407Z,99.90
2022-10-11T00:15:04.232Z,99.90
2022-10-11T00:17:32.113Z,99.90
2022-10-11T00:19:59.542Z,99.90
2022-10-11T00:22:26.786Z,99.90
2022-10-11T00:24:54.010Z,99.90
2022-10-11T00:27:21.246Z,99.90
2022-10-11T00:29:48.380Z,99.90
2022-10-11T00:32:15.873Z,99.90
2022-10-11T00:34:43.163Z,99.90
2022-10-11T00:37:10.397Z,99.90
2022-10-11T00:39:37.891Z,99.90
2022-10-11T00:42:05.122Z,99.90
2022-10-11T00:44:33.572Z,99.90
2022-10-11T00:47:23.200Z,99.90
2022-10-11T00:49:57.701Z,99.90
2022-10-11T00:52:40.321Z,99.90
2022-10-11T00:55:16.172Z,99.90
2022-10-11T00:57:49.360Z,99.90
2022-10-11T01:00:16.953Z,99.90
2022-10-11T01:02:44.617Z,99.90
2022-10-11T01:05:29.096Z,99.90
2022-10-11T01:08:00.068Z,99.90
2022-10-11T01:10:28.250Z,99.90
2022-10-11T01:13:02.382Z,99.90
2022-10-11T01:15:42.195Z,99.90
2022-10-11T01:18:28.187Z,99.90
2022-10-11T01:21:00.059Z,99.90
2022-10-11T01:23:42.833Z,99.90
2022-10-11T01:26:28.450Z,99.90
2022-10-11T01:29:16.782Z,99.90
2022-10-11T01:31:56.590Z,99.90
2022-10-11T01:34:35.035Z,99.90
2022-10-11T01:37:09.175Z,99.90
2022-10-11T01:39:48.523Z,99.90
2022-10-11T01:42:18.679Z,99.90
2022-10-11T01:44:48.937Z,99.90
2022-10-11T01:47:20.875Z,99.90
2022-10-11T01:49:57.210Z,99.90
2022-10-11T01:52:27.094Z,99.90
2022-10-11T01:55:10.740Z,99.90
2022-10-11T01:57:51.855Z,99.90
2022-10-11T02:00:23.791Z,99.90
2022-10-11T02:03:02.727Z,99.90
2022-10-11T02:05:42.518Z,99.90
2022-10-11T02:08:19.127Z,99.90
2022-10-11T02:11:16.551Z,99.90
2022-10-11T02:13:58.458Z,99.90
2022-10-11T02:16:34.759Z,99.90
2022-10-11T02:19:05.011Z,99.90
2022-10-11T02:21:36.078Z,99.90
2022-10-11T02:24:09.518Z,99.90
2022-10-11T02:26:41.673Z,99.90
2022-10-11T02:29:12.026Z,99.90
2022-10-11T02:31:40.954Z,99.90
2022-10-11T02:34:29.673Z,99.90
2022-10-11T02:37:22.649Z,99.90
2022-10-11T02:39:58.199Z,99.90
2022-10-11T02:42:33.960Z,99.90
2022-10-11T02:45:07.294Z,99.90
2022-10-11T02:47:34.970Z,99.90
2022-10-11T02:50:03.256Z,99.90
2022-10-11T02:52:30.425Z,99.90
2022-10-11T02:54:57.585Z,99.90
2022-10-11T02:57:24.899Z,99.90
2022-10-11T02:59:52.115Z,99.90
2022-10-11T03:02:20.692Z,99.90
2022-10-11T03:04:47.986Z,99.90
2022-10-11T03:07:15.194Z,99.90
2022-10-11T03:09:42.487Z,99.90
2022-10-11T03:12:09.679Z,99.90
2022-10-11T03:14:36.916Z,99.90
2022-10-11T03:17:31.074Z,99.90
2022-10-11T03:19:52.446Z,99.90
2022-10-11T03:22:19.688Z,99.90
2022-10-11T03:24:47.149Z,99.90
2022-10-11T03:27:14.422Z,99.90
2022-10-11T03:29:41.612Z,99.90
2022-10-11T03:32:08.784Z,99.90
2022-10-11T03:34:35.976Z,99.90
2022-10-11T03:37:03.281Z,99.90
2022-10-11T03:39:30.492Z,99.90
2022-10-11T03:41:57.865Z,99.90
2022-10-11T03:44:25.080Z,99.90
2022-10-11T03:46:52.283Z,99.90
2022-10-11T03:49:19.937Z,99.90
2022-10-11T03:51:47.177Z,99.90
2022-10-11T03:54:14.375Z,99.90
2022-10-11T03:56:41.625Z,99.90
2022-10-11T03:59:08.913Z,99.90
2022-10-11T04:01:38.221Z,99.90
2022-10-11T04:04:06.003Z,99.90
2022-10-11T04:06:33.232Z,99.90
2022-10-11T04:09:02.250Z,99.90
2022-10-11T04:11:29.493Z,99.90
2022-10-11T04:13:56.891Z,99.90
2022-10-11T04:16:24.147Z,99.90
2022-10-11T04:18:51.376Z,99.90
2022-10-11T04:21:18.614Z,99.90
2022-10-11T04:23:45.805Z,99.90
2022-10-11T04:26:13.159Z,99.90
2022-10-11T04:28:40.417Z,99.90
2022-10-11T04:31:07.945Z,99.90
2022-10-11T04:33:35.220Z,99.90
2022-10-11T04:36:03.063Z,99.90
2022-10-11T04:38:30.612Z,99.90
2022-10-11T04:41:09.991Z,99.90
2022-10-11T04:43:37.367Z,99.90
2022-10-11T04:46:05.508Z,99.90
2022-10-11T04:48:32.973Z,99.90
2022-10-11T04:51:00.241Z,99.90
2022-10-11T04:53:27.847Z,99.90
2022-10-11T04:56:05.855Z,99.90
2022-10-11T04:58:35.111Z,99.90
2022-10-11T05:01:02.329Z,99.90
2022-10-11T05:03:29.510Z,99.90
2022-10-11T05:05:56.766Z,99.90
2022-10-11T05:08:24.465Z,99.90
2022-10-11T05:11:03.965Z,99.90
2022-10-11T05:13:32.113Z,99.90
2022-10-11T05:15:59.522Z,99.90
2022-10-11T05:18:27.167Z,99.90
2022-10-11T05:21:02.510Z,99.90
2022-10-11T05:23:31.451Z,99.90
2022-10-11T05:25:59.564Z,99.90
2022-10-11T05:28:27.216Z,99.90
2022-10-11T05:30:55.165Z,99.90
2022-10-11T05:33:22.437Z,99.90
2022-10-11T05:35:49.763Z,99.90
2022-10-11T05:38:17.211Z,99.90
2022-10-11T05:40:44.527Z,99.90
2022-10-11T05:43:11.958Z,99.90
2022-10-11T05:45:40.568Z,99.90
2022-10-11T05:48:08.899Z,99.90
2022-10-11T05:50:36.825Z,99.90
2022-10-11T05:53:05.034Z,99.90
2022-10-11T05:55:37.326Z,99.90
2022-10-11T05:58:04.735Z,99.90
2022-10-11T06:00:32.404Z,99.90
2022-10-11T06:02:59.597Z,99.90
2022-10-11T06:05:26.855Z,99.90
2022-10-11T06:07:54.298Z,99.90
2022-10-11T06:10:21.645Z,99.90
2022-10-11T06:12:48.899Z,99.90
2022-10-11T06:15:16.240Z,99.90
2022-10-11T06:17:43.588Z,99.90
2022-10-11T06:20:11.113Z,99.90
2022-10-11T06:22:39.071Z,99.90
2022-10-11T06:25:07.098Z,99.90
2022-10-11T06:27:34.590Z,99.90
2022-10-11T06:30:01.996Z,99.90
2022-10-11T06:32:29.274Z,99.90
2022-10-11T06:34:56.539Z,99.90
2022-10-11T06:37:24.003Z,99.90
2022-10-11T06:39:51.348Z,99.90
2022-10-11T06:42:18.591Z,99.90
2022-10-11T06:44:45.757Z,99.90
2022-10-11T06:47:13.002Z,99.90
2022-10-11T06:49:40.228Z,99.90
2022-10-11T06:52:07.397Z,99.90
2022-10-11T06:54:34.602Z,99.90
2022-10-11T06:57:01.851Z,99.90
2022-10-11T06:59:29.108Z,99.90
2022-10-11T07:01:56.278Z,99.90
2022-10-11T07:04:23.548Z,99.90
2022-10-11T07:06:50.845Z,99.90
2022-10-11T07:09:18.037Z,99.90
2022-10-11T07:11:46.239Z,99.90
2022-10-11T07:14:13.507Z,99.90
2022-10-11T07:16:40.718Z,99.90
2022-10-11T07:19:08.037Z,99.90
2022-10-11T07:21:36.204Z,99.90
2022-10-11T07:24:03.757Z,99.90
2022-10-11T07:26:36.843Z,99.90
2022-10-11T07:29:06.803Z,99.90
2022-10-11T07:31:34.084Z,99.90
2022-10-11T07:34:01.332Z,99.90
2022-10-11T07:36:28.571Z,99.90
2022-10-11T07:38:55.823Z,99.90
2022-10-11T07:41:23.131Z,99.90
2022-10-11T07:43:50.967Z,99.90
2022-10-11T07:46:18.326Z,99.90
2022-10-11T07:48:45.776Z,99.90
2022-10-11T07:51:22.224Z,99.90
2022-10-11T07:54:01.297Z,99.90
2022-10-11T07:56:30.745Z,99.90
2022-10-11T07:59:00.447Z,99.90
2022-10-11T08:01:28.282Z,99.90
2022-10-11T08:03:56.973Z,99.90
2022-10-11T08:06:29.176Z,99.90
2022-10-11T08:08:57.212Z,99.90
2022-10-11T08:11:27.163Z,99.90
2022-10-11T08:13:54.636Z,99.90
2022-10-11T08:16:22.035Z,99.90
2022-10-11T08:18:49.524Z,99.90
2022-10-11T08:21:18.738Z,99.90
2022-10-11T08:23:46.455Z,99.90
2022-10-11T08:26:14.632Z,99.90
2022-10-11T08:28:42.083Z,99.90
2022-10-11T08:31:12.930Z,99.90
2022-10-11T08:33:40.245Z,99.90
2022-10-11T08:36:09.238Z,99.90
2022-10-11T08:38:37.769Z,99.90
2022-10-11T08:41:23.879Z,99.90
2022-10-11T08:44:09.986Z,99.90
2022-10-11T08:46:38.842Z,99.90
2022-10-11T08:49:09.717Z,99.90
2022-10-11T08:51:40.025Z,99.90
2022-10-11T08:54:27.548Z,99.90
2022-10-11T08:56:54.776Z,99.90
2022-10-11T08:59:41.396Z,99.90
2022-10-11T09:03:03.105Z,99.90
2022-10-11T09:05:30.468Z,99.90
2022-10-11T09:08:31.682Z,99.90
2022-10-11T09:11:04.250Z,99.90
2022-10-11T09:13:35.698Z,99.90
2022-10-11T09:16:39.453Z,99.90
2022-10-11T09:19:29.704Z,99.90
2022-10-11T09:22:37.986Z,99.90
2022-10-11T09:25:32.435Z,99.90
2022-10-11T09:28:28.746Z,99.90
2022-10-11T09:30:57.842Z,99.90
2022-10-11T09:33:40.072Z,99.90
2022-10-11T09:36:56.562Z,99.90
2022-10-11T09:39:35.640Z,99.90
2022-10-11T09:42:05.342Z,99.90
2022-10-11T09:44:39.058Z,99.90
2022-10-11T09:47:07.319Z,99.90
2022-10-11T09:49:48.935Z,99.90
2022-10-11T09:52:19.220Z,99.90
2022-10-11T09:54:49.208Z,99.90
2022-10-11T09:57:35.820Z,99.90
2022-10-11T10:00:06.150Z,99.90
2022-10-11T10:02:51.179Z,99.90
2022-10-11T10:05:24.013Z,99.90
2022-10-11T10:08:05.053Z,99.90
2022-10-11T10:10:42.340Z,99.90
2022-10-11T10:13:25.444Z,99.90
2022-10-11T10:15:55.762Z,99.90
2022-10-11T10:18:32.681Z,99.90
2022-10-11T10:21:00.707Z,99.90
2022-10-11T10:23:34.841Z,99.90
2022-10-11T10:26:17.163Z,99.90
2022-10-11T10:29:16.778Z,99.90
2022-10-11T10:34:54.478Z,99.90
2022-10-11T10:37:41.021Z,99.90
2022-10-11T10:40:10.122Z,99.90
2022-10-11T10:42:37.637Z,99.90
2022-10-11T10:45:11.990Z,99.90
2022-10-11T10:48:08.119Z,99.90
2022-10-11T10:50:56.643Z,99.90
2022-10-11T10:53:39.080Z,99.90
2022-10-11T10:56:19.749Z,99.90
2022-10-11T10:59:29.745Z,99.90
2022-10-11T11:02:40.309Z,99.90
2022-10-11T11:05:29.849Z,99.90
2022-10-11T11:08:37.979Z,99.90
2022-10-11T11:11:35.898Z,99.90
2022-10-11T11:14:14.610Z,99.90
2022-10-11T11:17:19.972Z,99.90
2022-10-11T11:20:20.248Z,99.90
2022-10-11T11:23:08.496Z,99.90
2022-10-11T11:25:57.245Z,99.90
2022-10-11T11:28:57.730Z,99.90
2022-10-11T11:31:49.611Z,99.90
2022-10-11T11:34:44.521Z,99.90
2022-10-11T11:37:30.304Z,99.90
2022-10-11T11:40:20.419Z,99.90
2022-10-11T11:42:55.589Z,99.90
2022-10-11T11:45:31.054Z,99.90
2022-10-11T11:48:06.573Z,99.90
2022-10-11T11:50:40.095Z,99.90
2022-10-11T11:53:21.737Z,99.90
2022-10-11T11:55:55.886Z,99.90
2022-10-11T11:58:49.804Z,99.90
2022-10-11T12:01:36.098Z,99.90
2022-10-11T12:04:09.377Z,99.90
2022-10-11T12:06:47.809Z,99.90
2022-10-11T12:09:25.559Z,99.90
2022-10-11T12:12:00.373Z,99.90
2022-10-11T12:14:33.874Z,99.90
2022-10-11T12:17:13.339Z,99.90
2022-10-11T12:19:44.517Z,99.90
2022-10-11T12:22:27.007Z,99.90
2022-10-11T12:24:55.694Z,99.90
2022-10-11T12:27:37.177Z,99.90
2022-10-11T12:30:25.591Z,99.90
2022-10-11T12:33:06.644Z,99.90
2022-10-11T12:35:33.875Z,99.90
2022-10-11T12:38:21.627Z,99.90
2022-10-11T12:41:00.480Z,99.90
2022-10-11T12:43:31.249Z,99.90
2022-10-11T12:46:31.133Z,99.90
2022-10-11T12:49:04.644Z,99.90
2022-10-11T12:51:50.583Z,99.90
2022-10-11T12:54:29.065Z,99.90
2022-10-11T12:57:11.849Z,99.90
2022-10-11T12:59:44.791Z,99.90
2022-10-11T13:02:29.873Z,99.90
2022-10-11T13:05:26.483Z,99.90
2022-10-11T13:07:57.270Z,99.90
2022-10-11T13:10:44.393Z,99.90
2022-10-11T13:13:24.124Z,99.70
2022-10-11T13:15:56.767Z,99.20
2022-10-11T13:18:25.759Z,99.20
2022-10-11T13:20:53.229Z,99.10
2022-10-11T13:23:25.167Z,99.00
2022-10-11T13:25:53.759Z,98.70
2022-10-11T13:28:22.618Z,98.50
2022-10-11T13:30:56.215Z,98.40
2022-10-11T13:33:25.644Z,98.00
2022-10-11T13:35:53.205Z,97.90
2022-10-11T13:38:23.997Z,97.40
2022-10-11T13:40:51.599Z,97.40
2022-10-11T13:43:28.436Z,96.90
2022-10-11T13:45:58.435Z,96.40
2022-10-11T13:48:31.482Z,96.60
2022-10-11T13:51:38.277Z,96.50
2022-10-11T13:54:13.462Z,96.40
2022-10-11T13:56:50.991Z,96.30
2022-10-11T13:59:24.207Z,96.40
2022-10-11T14:01:58.395Z,96.50
2022-10-11T14:04:29.505Z,96.30
2022-10-11T14:07:00.121Z,96.00
2022-10-11T14:09:34.566Z,95.90
2022-10-11T14:12:32.244Z,95.90
2022-10-11T14:15:06.008Z,95.50
2022-10-11T14:17:43.640Z,95.30
2022-10-11T14:20:24.146Z,95.00
2022-10-11T14:22:52.602Z,94.30
2022-10-11T14:25:20.660Z,94.10
2022-10-11T14:27:51.774Z,93.70
2022-10-11T14:30:26.173Z,93.50
2022-10-11T14:32:57.887Z,93.50
2022-10-11T14:35:31.646Z,93.50
2022-10-11T14:37:59.252Z,93.60
2022-10-11T14:40:29.478Z,93.60
2022-10-11T14:42:56.952Z,93.80
2022-10-11T14:45:24.526Z,93.90
2022-10-11T14:47:51.993Z,93.90
2022-10-11T14:50:44.025Z,94.00
2022-10-11T14:53:11.754Z,94.20
2022-10-11T14:55:40.560Z,94.30
2022-10-11T14:58:08.904Z,94.30
2022-10-11T15:00:36.935Z,94.10
2022-10-11T15:03:07.081Z,94.20
2022-10-11T15:05:35.215Z,94.20
2022-10-11T15:08:04.014Z,94.30
2022-10-11T15:10:37.700Z,94.30
2022-10-11T15:13:07.143Z,94.50
2022-10-11T15:15:36.958Z,94.50
2022-10-11T15:18:05.848Z,94.50
2022-10-11T15:20:37.393Z,94.70
2022-10-11T15:23:06.195Z,94.90
2022-10-11T15:25:34.583Z,95.10
2022-10-11T15:28:02.128Z,95.30
2022-10-11T15:30:37.112Z,95.00
2022-10-11T15:33:07.650Z,95.10
2022-10-11T15:35:34.889Z,95.40
2022-10-11T15:38:02.247Z,95.50
2022-10-11T15:40:36.744Z,95.60
2022-10-11T15:43:04.344Z,95.60
2022-10-11T15:45:31.637Z,95.70
2022-10-11T15:47:59.438Z,95.80
2022-10-11T15:50:36.709Z,96.00
2022-10-11T15:53:13.276Z,96.20
2022-10-11T15:55:43.443Z,96.20
2022-10-11T15:58:18.277Z,96.20
2022-10-11T16:00:47.260Z,96.30
2022-10-11T16:03:15.485Z,96.50
2022-10-11T16:05:43.381Z,96.70
2022-10-11T16:08:11.694Z,96.90
2022-10-11T16:10:40.250Z,97.40
2022-10-11T16:13:08.735Z,97.20
2022-10-11T16:15:38.648Z,97.40
2022-10-11T16:18:07.283Z,97.50
2022-10-11T16:20:40.988Z,98.10
2022-10-11T16:23:08.385Z,97.80
2022-10-11T16:25:36.595Z,97.80
2022-10-11T16:28:05.298Z,98.10
2022-10-11T16:30:32.570Z,98.10
2022-10-11T16:33:00.545Z,98.20
2022-10-11T16:35:32.259Z,98.20
2022-10-11T16:38:01.032Z,98.40
2022-10-11T16:40:30.019Z,98.50
2022-10-11T16:42:57.292Z,98.50
2022-10-11T16:45:24.580Z,98.60
2022-10-11T16:47:52.140Z,98.70
2022-10-11T16:50:19.819Z,98.90
2022-10-11T16:52:47.237Z,99.00
2022-10-11T16:55:14.547Z,99.00
2022-10-11T16:57:41.861Z,99.10
2022-10-11T17:00:10.305Z,99.10
2022-10-11T17:02:37.649Z,99.30
2022-10-11T17:05:05.580Z,99.40
2022-10-11T17:07:33.791Z,99.60
2022-10-11T17:10:01.119Z,99.90
2022-10-11T17:12:29.141Z,99.90
2022-10-11T17:14:56.554Z,99.90
2022-10-11T17:17:24.476Z,99.90
2022-10-11T17:19:51.670Z,99.90
2022-10-11T17:22:19.598Z,99.90
2022-10-11T17:24:47.373Z,99.90
2022-10-11T17:27:15.034Z,99.90
2022-10-11T17:29:42.526Z,99.90
2022-10-11T17:32:09.902Z,99.90
2022-10-11T17:34:37.098Z,99.90
2022-10-11T17:37:04.743Z,99.90
2022-10-11T17:39:32.131Z,99.90
2022-10-11T17:42:07.189Z,99.90
2022-10-11T17:44:38.586Z,99.90
2022-10-11T17:47:06.058Z,99.90
2022-10-11T17:49:33.345Z,99.90
2022-10-11T17:52:00.770Z,99.90
2022-10-11T17:54:28.112Z,99.90
2022-10-11T17:56:55.461Z,99.90
2022-10-11T17:59:23.008Z,99.90
2022-10-11T18:01:50.482Z,99.90
2022-10-11T18:04:19.851Z,99.90
2022-10-11T18:06:48.144Z,99.90
2022-10-11T18:09:18.348Z,99.90
2022-10-11T18:11:46.813Z,99.90
2022-10-11T18:14:15.076Z,99.90
2022-10-11T18:16:42.794Z,99.90
2022-10-11T18:19:14.122Z,99.90
2022-10-11T18:21:42.259Z,99.90
2022-10-11T18:24:14.905Z,99.90
2022-10-11T18:26:43.888Z,99.90
2022-10-11T18:29:12.482Z,99.90
2022-10-11T18:31:40.695Z,99.90
2022-10-11T18:34:10.820Z,99.90
2022-10-11T18:36:41.870Z,99.90
2022-10-11T18:39:14.294Z,99.90
2022-10-11T18:41:44.406Z,99.90
2022-10-11T18:44:14.382Z,99.90
2022-10-11T18:46:42.208Z,99.90
2022-10-11T18:49:09.691Z,99.90
2022-10-11T18:51:39.061Z,99.90
2022-10-11T18:54:07.875Z,99.90
2022-10-11T18:56:37.075Z,99.90
2022-10-11T18:59:05.503Z,99.90
2022-10-11T19:01:36.238Z,99.90
2022-10-11T19:04:05.137Z,99.90
2022-10-11T19:06:38.332Z,99.90
2022-10-11T19:09:14.495Z,99.90
2022-10-11T19:11:41.901Z,99.90
2022-10-11T19:14:11.961Z,99.90
2022-10-11T19:16:41.856Z,99.90
2022-10-11T19:19:14.532Z,99.90
2022-10-11T19:21:42.181Z,99.90
2022-10-11T19:24:09.734Z,99.90
2022-10-11T19:26:40.188Z,99.90
2022-10-11T19:29:10.685Z,99.90
2022-10-11T19:31:45.594Z,99.90
2022-10-11T19:34:13.334Z,99.90
2022-10-11T19:36:44.331Z,99.90
2022-10-11T19:39:15.442Z,99.90
2022-10-11T19:41:46.655Z,99.90
2022-10-11T19:44:14.746Z,99.90
2022-10-11T19:46:51.448Z,99.90
2022-10-11T19:49:22.343Z,99.90
2022-10-11T19:51:49.706Z,99.90
2022-10-11T19:54:17.169Z,99.90
2022-10-11T19:56:44.664Z,99.90
2022-10-11T19:59:13.030Z,99.90
2022-10-11T20:01:41.426Z,99.90
2022-10-11T20:04:18.801Z,99.90
2022-10-11T20:06:58.263Z,99.90
2022-10-11T20:09:30.371Z,99.90
2022-10-11T20:11:58.261Z,99.90
2022-10-11T20:14:25.707Z,99.90
2022-10-11T20:16:53.097Z,99.90
2022-10-11T20:19:24.852Z,99.90
2022-10-11T20:21:55.451Z,99.90
2022-10-11T20:24:23.032Z,99.90
2022-10-11T20:26:50.358Z,99.90
2022-10-11T20:29:17.890Z,99.90
2022-10-11T20:31:45.072Z,99.90
2022-10-11T20:34:12.450Z,99.90
2022-10-11T20:36:39.880Z,99.90
2022-10-11T20:39:07.223Z,99.90
2022-10-11T20:41:39.584Z,99.90
2022-10-11T20:44:09.075Z,99.90
2022-10-11T20:46:39.084Z,99.90
2022-10-11T20:49:09.364Z,99.90
2022-10-11T20:51:38.611Z,99.90
2022-10-11T20:54:06.452Z,99.90
2022-10-11T20:56:35.056Z,99.90
2022-10-11T20:59:02.962Z,99.90
2022-10-11T21:01:39.894Z,99.90
2022-10-11T21:04:09.942Z,99.90
2022-10-11T21:06:37.196Z,99.90
2022-10-11T21:09:04.531Z,99.90
2022-10-11T21:11:33.569Z,99.90
2022-10-11T21:14:03.085Z,99.90
2022-10-11T21:16:30.816Z,99.90
2022-10-11T21:18:59.667Z,99.90
2022-10-11T21:21:28.988Z,99.90
2022-10-11T21:24:01.402Z,99.90
2022-10-11T21:26:29.307Z,99.90
2022-10-11T21:28:57.114Z,99.90
2022-10-11T21:31:25.372Z,99.90
2022-10-11T21:33:54.634Z,99.90
2022-10-11T21:36:24.637Z,99.90
2022-10-11T21:38:52.702Z,99.90
2022-10-11T21:41:25.590Z,99.90
2022-10-11T21:43:53.089Z,99.90
2022-10-11T21:49:16.737Z,99.90
2022-10-11T21:51:44.283Z,99.90
2022-10-11T21:54:11.685Z,99.90
2022-10-11T21:56:39.037Z,99.90
2022-10-11T21:59:09.456Z,99.90
2022-10-11T22:01:40.599Z,99.90
2022-10-11T22:04:07.999Z,99.90
2022-10-11T22:06:35.486Z,99.90
2022-10-11T22:09:03.746Z,99.90
2022-10-11T22:11:31.058Z,99.90
2022-10-11T22:13:58.654Z,99.90
2022-10-11T22:16:25.911Z,99.90
2022-10-11T22:18:54.010Z,99.90
2022-10-11T22:21:23.404Z,99.90
2022-10-11T22:23:52.429Z,99.90
2022-10-11T22:26:22.911Z,99.90
2022-10-11T22:28:50.457Z,99.90
2022-10-11T22:31:19.345Z,99.90
2022-10-11T22:33:46.785Z,99.90
2022-10-11T22:36:16.690Z,99.90
2022-10-11T22:38:43.888Z,99.90
2022-10-11T22:41:11.704Z,99.90
2022-10-11T22:43:39.354Z,99.90
2022-10-11T22:46:07.815Z,99.90
2022-10-11T22:48:35.394Z,99.90
2022-10-11T22:51:02.831Z,99.90
2022-10-11T22:53:30.678Z,99.90
2022-10-11T22:55:58.128Z,99.90
2022-10-11T22:58:25.635Z,99.90
2022-10-11T23:00:52.989Z,99.90
2022-10-11T23:03:20.289Z,99.90
2022-10-11T23:05:55.346Z,99.90
2022-10-11T23:08:22.726Z,99.90
2022-10-11T23:10:50.021Z,99.90
2022-10-11T23:13:17.281Z,99.90
2022-10-11T23:15:44.490Z,99.90
2022-10-11T23:18:11.900Z,99.90
2022-10-11T23:20:39.592Z,99.90
2022-10-11T23:23:07.347Z,99.90
2022-10-11T23:25:34.694Z,99.90
2022-10-11T23:28:02.396Z,99.90
2022-10-11T23:30:29.728Z,99.90
2022-10-11T23:32:57.192Z,99.90
2022-10-11T23:35:24.723Z,99.90
2022-10-11T23:37:54.252Z,99.90
2022-10-11T23:40:21.470Z,99.90
2022-10-11T23:42:48.711Z,99.90
2022-10-11T23:45:16.556Z,99.90
2022-10-11T23:47:43.725Z,99.90
2022-10-11T23:50:10.922Z,99.90
2022-10-11T23:52:38.179Z,99.90
2022-10-11T23:55:05.618Z,99.90
2022-10-11T23:57:33.003Z,99.90
